Time;durP1;ratioP1;P1;durP2;ratioP2;P2;SDS_P1;SDS_P2;PMS_P1;PMS_P2;Temp;Humidity;BMP_temperature;BMP_pressure;BME280_temperature;BME280_humidity;BME280_pressure;Samples;Min_cycle;Max_cycle;Signal;HPM_P1;HPM_P2
2021/07/15 00:02:31;;;;;;;0.40;0.30;;;16.60;28.90;;;;;;5112239;27;20220;-73
2021/07/15 00:05:25;;;;;;;0.88;0.30;;;16.70;29.10;;;;;;5096316;27;20066;-71
2021/07/15 00:08:17;;;;;;;0.65;0.30;;;16.70;30.00;;;;;;5115487;27;20100;-72
2021/07/15 00:11:08;;;;;;;0.77;0.30;;;16.70;29.90;;;;;;5108874;27;20510;-72
2021/07/15 00:13:56;;;;;;;1.73;0.30;;;16.50;30.00;;;;;;5113053;27;20731;-71
2021/07/15 00:16:45;;;;;;;2.10;0.30;;;16.50;33.50;;;;;;5104723;27;20464;-72
2021/07/15 00:19:35;;;;;;;1.42;0.40;;;16.40;34.80;;;;;;5109285;27;20058;-72
2021/07/15 00:22:23;;;;;;;1.02;0.73;;;16.30;34.10;;;;;;5112977;27;20047;-71
2021/07/15 00:25:15;;;;;;;2.63;0.40;;;16.40;34.10;;;;;;5108777;27;20052;-72
2021/07/15 00:28:04;;;;;;;0.60;0.30;;;16.40;33.50;;;;;;5108194;27;20047;-71
2021/07/15 00:30:52;;;;;;;1.42;0.30;;;16.30;34.00;;;;;;5107693;27;20043;-71
2021/07/15 00:33:41;;;;;;;3.13;0.38;;;16.20;35.60;;;;;;5110100;27;20070;-72
2021/07/15 00:36:30;;;;;;;0.80;0.50;;;16.20;37.00;;;;;;5110290;27;20036;-72
2021/07/15 00:39:18;;;;;;;0.57;0.30;;;16.20;36.80;;;;;;5109569;27;20409;-73
2021/07/15 00:42:08;;;;;;;1.25;0.70;;;16.20;37.30;;;;;;5109884;27;20123;-72
2021/07/15 00:44:56;;;;;;;0.52;0.30;;;16.20;38.10;;;;;;5109177;27;20547;-72
2021/07/15 00:47:45;;;;;;;0.98;0.30;;;16.20;38.30;;;;;;5118777;27;20070;-72
2021/07/15 00:50:33;;;;;;;1.45;0.30;;;16.10;37.50;;;;;;5107421;27;20441;-72
2021/07/15 00:53:22;;;;;;;1.17;0.47;;;16.10;37.20;;;;;;5109426;27;20144;-72
2021/07/15 00:56:12;;;;;;;0.60;0.30;;;16.10;38.70;;;;;;5105259;28;20047;-72
2021/07/15 00:59:03;;;;;;;1.20;0.30;;;16.00;38.20;;;;;;5109258;28;20058;-72
2021/07/15 01:01:55;;;;;;;1.00;0.50;;;16.10;39.10;;;;;;5112742;28;20066;-71
2021/07/15 01:04:47;;;;;;;0.85;0.30;;;16.00;39.80;;;;;;5108531;28;20054;-72
2021/07/15 01:07:39;;;;;;;0.80;0.43;;;16.10;39.20;;;;;;5109135;28;20055;-71
2021/07/15 01:10:32;;;;;;;0.75;0.45;;;16.00;40.70;;;;;;5108848;28;20070;-72
2021/07/15 01:13:30;;;;;;;1.65;0.47;;;15.90;41.10;;;;;;5112434;28;20421;-73
2021/07/15 01:16:29;;;;;;;2.08;0.40;;;16.00;42.40;;;;;;5106371;28;20520;-72
2021/07/15 01:19:47;;;;;;;1.42;0.43;;;15.80;42.50;;;;;;5116351;27;20035;-72
2021/07/15 01:22:38;;;;;;;0.88;0.40;;;15.80;43.70;;;;;;5113323;27;20043;-72
2021/07/15 01:25:55;;;;;;;1.08;0.40;;;15.70;44.50;;;;;;5110713;27;20164;-71
2021/07/15 01:29:03;;;;;;;0.98;0.57;;;15.70;44.60;;;;;;5112553;27;20467;-73
2021/07/15 01:32:01;;;;;;;1.73;0.52;;;15.70;45.60;;;;;;5113792;27;20043;-72
2021/07/15 01:34:51;;;;;;;0.90;0.50;;;15.70;46.20;;;;;;5114988;27;20770;-72
2021/07/15 01:37:45;;;;;;;1.30;0.32;;;15.70;45.90;;;;;;5113353;27;20517;-72
2021/07/15 01:40:40;;;;;;;1.07;0.30;;;15.70;45.40;;;;;;5113570;27;20050;-72
2021/07/15 01:43:33;;;;;;;0.65;0.32;;;15.70;44.60;;;;;;5111632;27;20278;-72
2021/07/15 01:46:22;;;;;;;1.08;0.30;;;15.80;44.30;;;;;;5114337;27;20047;-73
2021/07/15 01:49:14;;;;;;;1.67;0.30;;;15.80;43.40;;;;;;5109394;27;20081;-72
2021/07/15 01:52:04;;;;;;;0.28;0.28;;;15.80;43.70;;;;;;5116854;27;20963;-72
2021/07/15 01:54:53;;;;;;;1.48;0.28;;;15.80;42.20;;;;;;5111722;27;20071;-72
2021/07/15 01:57:43;;;;;;;1.30;0.32;;;15.80;41.70;;;;;;5115024;27;20082;-72
2021/07/15 02:00:33;;;;;;;1.30;0.40;;;15.80;41.80;;;;;;5118031;27;20050;-73
2021/07/15 02:03:22;;;;;;;1.13;0.40;;;15.80;41.80;;;;;;5112079;27;20043;-72
2021/07/15 02:06:13;;;;;;;0.38;0.30;;;15.80;42.20;;;;;;5110883;27;20051;-71
2021/07/15 02:09:04;;;;;;;1.13;0.30;;;15.80;40.30;;;;;;5111715;27;20554;-71
2021/07/15 02:11:56;;;;;;;2.47;0.40;;;15.90;39.50;;;;;;5114248;27;20532;-73
2021/07/15 02:14:46;;;;;;;0.82;0.20;;;15.90;40.00;;;;;;5108822;27;20134;-73
2021/07/15 02:17:36;;;;;;;0.93;0.40;;;15.90;39.70;;;;;;5110523;27;20074;-73
2021/07/15 02:20:26;;;;;;;4.60;0.40;;;15.80;38.70;;;;;;5110368;27;20036;-73
2021/07/15 02:23:17;;;;;;;0.43;0.13;;;15.90;38.20;;;;;;5113793;27;20082;-72
2021/07/15 02:26:06;;;;;;;3.20;0.20;;;15.80;38.50;;;;;;5111971;27;20055;-73
2021/07/15 02:28:56;;;;;;;0.22;0.20;;;15.80;38.70;;;;;;5110240;27;20050;-73
2021/07/15 02:31:49;;;;;;;2.75;0.20;;;15.80;39.20;;;;;;5109836;27;20044;-71
2021/07/15 02:34:46;;;;;;;0.45;0.20;;;15.90;39.50;;;;;;5111462;27;20133;-72
2021/07/15 02:37:37;;;;;;;0.40;0.10;;;15.90;38.40;;;;;;5108844;27;20039;-72
2021/07/15 02:40:27;;;;;;;6.47;0.22;;;15.80;39.00;;;;;;5109300;27;20097;-72
2021/07/15 02:43:16;;;;;;;0.60;0.17;;;15.90;39.10;;;;;;5110881;27;20120;-72
2021/07/15 02:46:05;;;;;;;3.30;0.22;;;15.80;37.90;;;;;;5111807;27;20446;-72
2021/07/15 02:48:53;;;;;;;1.40;0.20;;;15.80;37.90;;;;;;5111447;27;20537;-72
2021/07/15 02:51:42;;;;;;;3.60;0.20;;;15.90;39.20;;;;;;5111388;27;20051;-72
2021/07/15 02:54:30;;;;;;;0.63;0.30;;;15.80;39.50;;;;;;5114782;27;20039;-71
2021/07/15 02:57:28;;;;;;;0.40;0.20;;;15.80;39.30;;;;;;5115825;27;20044;-72
2021/07/15 03:00:18;;;;;;;2.25;0.50;;;15.80;38.50;;;;;;5109215;27;20043;-71
2021/07/15 03:03:15;;;;;;;0.40;0.30;;;15.90;39.10;;;;;;5114150;27;20040;-72
2021/07/15 03:06:10;;;;;;;1.60;0.30;;;15.80;38.90;;;;;;5095730;28;20040;-73
2021/07/15 03:09:03;;;;;;;0.98;0.20;;;15.90;38.70;;;;;;5110385;27;20150;-71
2021/07/15 03:11:59;;;;;;;1.02;0.40;;;15.80;37.80;;;;;;5115649;27;20122;-72
2021/07/15 03:14:51;;;;;;;2.42;0.50;;;15.90;37.20;;;;;;5112941;27;20058;-73
2021/07/15 03:17:45;;;;;;;2.33;0.85;;;15.90;37.60;;;;;;5108627;27;20682;-72
2021/07/15 03:20:35;;;;;;;0.68;0.30;;;16.00;36.80;;;;;;5110090;27;20035;-72
2021/07/15 03:23:26;;;;;;;13.80;0.80;;;15.90;36.20;;;;;;5111978;27;20213;-72
2021/07/15 03:26:16;;;;;;;0.98;0.32;;;15.90;38.00;;;;;;5105406;27;20054;-72
2021/07/15 03:29:06;;;;;;;1.17;0.32;;;15.90;37.80;;;;;;5109700;27;20620;-71
2021/07/15 03:31:56;;;;;;;1.42;0.40;;;15.90;37.00;;;;;;5108996;27;20058;-72
2021/07/15 03:34:46;;;;;;;1.42;0.55;;;15.90;36.20;;;;;;5111315;27;20116;-71
2021/07/15 03:37:37;;;;;;;0.47;0.30;;;15.90;37.10;;;;;;5117568;27;20480;-71
2021/07/15 03:40:30;;;;;;;1.70;0.30;;;15.90;36.80;;;;;;5106823;27;20055;-72
2021/07/15 03:43:19;;;;;;;1.50;0.30;;;16.10;35.90;;;;;;5114568;27;20112;-72
2021/07/15 03:46:09;;;;;;;3.25;0.47;;;16.00;35.90;;;;;;5107695;27;20051;-72
2021/07/15 03:49:00;;;;;;;0.55;0.40;;;16.00;36.00;;;;;;5111475;27;20042;-73
2021/07/15 03:51:49;;;;;;;2.17;0.50;;;16.00;36.70;;;;;;5109688;27;20407;-72
2021/07/15 03:54:40;;;;;;;0.60;0.30;;;15.90;34.40;;;;;;5108547;27;20050;-71
2021/07/15 03:57:29;;;;;;;0.30;0.30;;;16.00;34.20;;;;;;5109517;27;20055;-73
2021/07/15 04:00:21;;;;;;;4.35;0.30;;;16.00;34.20;;;;;;5112689;27;20043;-73
2021/07/15 04:03:11;;;;;;;0.70;0.20;;;15.90;34.80;;;;;;5111660;27;20039;-72
2021/07/15 04:06:03;;;;;;;0.47;0.20;;;16.00;36.30;;;;;;5107404;27;20120;-72
2021/07/15 04:08:52;;;;;;;0.43;0.20;;;16.00;36.10;;;;;;5110215;27;20035;-72
2021/07/15 04:11:46;;;;;;;1.10;0.40;;;16.00;33.70;;;;;;5109032;27;20055;-72
2021/07/15 04:14:53;;;;;;;4.30;0.50;;;16.00;34.40;;;;;;5108358;27;20414;-72
2021/07/15 04:17:49;;;;;;;3.00;0.57;;;16.10;34.70;;;;;;5113351;27;20529;-72
2021/07/15 04:20:41;;;;;;;3.60;0.50;;;16.10;33.90;;;;;;5109651;27;20059;-72
2021/07/15 04:23:32;;;;;;;7.63;0.73;;;16.10;34.10;;;;;;5108396;27;20600;-72
2021/07/15 04:26:20;;;;;;;2.20;0.50;;;16.10;35.80;;;;;;5109363;27;20054;-72
2021/07/15 04:29:10;;;;;;;0.68;0.40;;;16.20;35.50;;;;;;5109480;27;20079;-71
2021/07/15 04:32:18;;;;;;;1.10;0.40;;;16.30;35.90;;;;;;5114636;27;20056;-72
2021/07/15 04:35:08;;;;;;;0.65;0.30;;;16.20;36.00;;;;;;5097960;27;20063;-71
2021/07/15 04:37:58;;;;;;;3.60;0.60;;;16.30;36.80;;;;;;5109525;27;20059;-72
2021/07/15 04:40:51;;;;;;;1.33;0.52;;;16.30;35.90;;;;;;5107790;27;20035;-73
2021/07/15 04:43:40;;;;;;;3.22;0.50;;;16.30;37.10;;;;;;5113860;27;20058;-72
2021/07/15 04:46:29;;;;;;;2.30;0.65;;;16.10;37.20;;;;;;5106195;27;20092;-72
2021/07/15 04:49:18;;;;;;;2.60;0.60;;;16.10;38.30;;;;;;5111300;27;20498;-72
2021/07/15 04:52:10;;;;;;;2.10;0.60;;;16.20;39.10;;;;;;5110549;28;20048;-72
2021/07/15 04:55:00;;;;;;;4.32;0.90;;;16.20;37.60;;;;;;5108632;28;20054;-71
2021/07/15 04:57:51;;;;;;;0.50;0.30;;;16.20;37.50;;;;;;5113417;28;20055;-71
2021/07/15 05:00:40;;;;;;;2.53;0.65;;;16.30;36.80;;;;;;5109638;28;20050;-71
2021/07/15 05:03:31;;;;;;;0.85;0.50;;;16.20;37.50;;;;;;5110684;28;20051;-71
2021/07/15 05:06:21;;;;;;;1.00;0.43;;;16.30;37.90;;;;;;5108591;28;20124;-71
2021/07/15 05:09:10;;;;;;;1.02;0.50;;;16.20;37.10;;;;;;5115086;28;20821;-72
2021/07/15 05:11:58;;;;;;;1.20;0.65;;;16.30;38.00;;;;;;5110281;28;20051;-72
2021/07/15 05:14:48;;;;;;;0.95;0.40;;;16.30;37.60;;;;;;5111740;28;20761;-73
2021/07/15 05:17:37;;;;;;;1.92;0.65;;;16.30;35.20;;;;;;5107549;28;20061;-72
2021/07/15 05:20:26;;;;;;;0.82;0.50;;;16.30;35.20;;;;;;5107985;28;20040;-73
2021/07/15 05:23:14;;;;;;;1.45;0.30;;;16.40;34.10;;;;;;5107107;28;20619;-73
2021/07/15 05:26:03;;;;;;;2.95;0.70;;;16.20;32.30;;;;;;5107265;28;20080;-72
2021/07/15 05:28:51;;;;;;;1.38;0.47;;;16.30;35.60;;;;;;5105717;28;20115;-72
2021/07/15 05:31:41;;;;;;;1.95;0.55;;;16.30;32.90;;;;;;5109291;28;20059;-72
2021/07/15 05:34:30;;;;;;;1.00;0.50;;;16.40;35.80;;;;;;5108800;28;20047;-73
2021/07/15 05:37:18;;;;;;;2.00;0.40;;;16.20;34.00;;;;;;5109146;28;20835;-72
2021/07/15 05:40:08;;;;;;;3.85;0.52;;;16.20;34.70;;;;;;5111460;28;20553;-72
2021/07/15 05:42:56;;;;;;;2.03;0.70;;;16.30;34.10;;;;;;5107814;28;20371;-72
2021/07/15 05:45:44;;;;;;;1.40;0.60;;;16.40;34.80;;;;;;5105823;28;20181;-71
2021/07/15 05:48:34;;;;;;;1.50;0.52;;;16.50;34.20;;;;;;5109226;28;20051;-72
2021/07/15 05:51:22;;;;;;;5.43;0.75;;;16.40;34.10;;;;;;5107658;28;20043;-72
2021/07/15 05:54:11;;;;;;;3.20;0.45;;;16.50;33.30;;;;;;5105962;28;20107;-72
2021/07/15 05:56:59;;;;;;;1.38;0.40;;;16.30;34.00;;;;;;5112070;28;20059;-72
2021/07/15 05:59:48;;;;;;;1.42;0.50;;;16.30;34.30;;;;;;5108535;28;20052;-71
2021/07/15 06:02:37;;;;;;;0.80;0.40;;;16.50;33.40;;;;;;5112516;28;20059;-71
2021/07/15 06:05:46;;;;;;;2.03;0.50;;;16.70;29.60;;;;;;5111701;27;20423;-71
2021/07/15 06:08:34;;;;;;;0.77;0.40;;;16.40;31.60;;;;;;5115460;27;20613;-72
2021/07/15 06:11:23;;;;;;;5.03;0.50;;;16.50;31.10;;;;;;5113217;27;20047;-72
2021/07/15 06:14:11;;;;;;;1.50;0.50;;;16.60;32.40;;;;;;5112010;27;20065;-72
2021/07/15 06:17:00;;;;;;;1.77;0.30;;;16.90;30.90;;;;;;5111527;27;20051;-71
2021/07/15 06:19:51;;;;;;;2.47;0.57;;;17.00;26.30;;;;;;5111061;27;20532;-72
2021/07/15 06:22:41;;;;;;;4.70;0.70;;;17.10;26.80;;;;;;5110668;27;20131;-74
2021/07/15 06:25:29;;;;;;;1.52;0.20;;;17.30;23.60;;;;;;5111675;27;20100;-72
2021/07/15 06:28:18;;;;;;;2.45;0.50;;;17.50;22.20;;;;;;5113584;27;20052;-72
2021/07/15 06:31:06;;;;;;;2.20;0.60;;;17.50;20.20;;;;;;5118680;27;20148;-72
2021/07/15 06:33:55;;;;;;;3.60;0.52;;;17.70;20.30;;;;;;5110456;27;20051;-72
2021/07/15 06:36:46;;;;;;;3.15;0.68;;;17.60;20.20;;;;;;5111033;27;20047;-72
2021/07/15 06:39:38;;;;;;;2.05;0.40;;;17.50;21.40;;;;;;5109614;27;20043;-72
2021/07/15 06:42:26;;;;;;;0.55;0.30;;;17.70;21.20;;;;;;5111121;27;20556;-72
2021/07/15 06:45:15;;;;;;;0.55;0.25;;;17.60;20.20;;;;;;5113426;27;20047;-72
2021/07/15 06:48:04;;;;;;;2.33;0.50;;;17.30;21.20;;;;;;5113500;27;20042;-71
2021/07/15 06:50:53;;;;;;;2.85;0.52;;;17.20;21.40;;;;;;5112764;27;20429;-72
2021/07/15 06:53:41;;;;;;;2.30;0.30;;;17.20;22.90;;;;;;5110447;27;20048;-71
2021/07/15 06:56:31;;;;;;;1.50;0.38;;;17.30;21.50;;;;;;5107905;27;20046;-72
2021/07/15 06:59:19;;;;;;;2.13;0.47;;;17.10;22.20;;;;;;5110198;27;20516;-71
2021/07/15 07:02:10;;;;;;;1.92;1.10;;;16.80;23.20;;;;;;5109970;27;20048;-72
2021/07/15 07:04:59;;;;;;;0.50;0.40;;;16.70;24.50;;;;;;5110808;27;20059;-71
2021/07/15 07:07:47;;;;;;;1.48;0.43;;;17.00;23.30;;;;;;5107217;27;20490;-72
2021/07/15 07:10:36;;;;;;;1.27;0.40;;;17.00;24.90;;;;;;5109611;27;20062;-72
2021/07/15 07:13:26;;;;;;;0.60;0.47;;;17.00;23.30;;;;;;5111753;27;20054;-72
2021/07/15 07:16:16;;;;;;;0.80;0.30;;;17.20;24.20;;;;;;5103400;27;20051;-72
2021/07/15 07:19:04;;;;;;;0.35;0.28;;;17.30;24.00;;;;;;5113398;27;20169;-72
2021/07/15 07:21:52;;;;;;;4.20;0.50;;;17.10;23.40;;;;;;5111794;27;20032;-71
2021/07/15 07:24:43;;;;;;;1.63;0.30;;;17.30;23.30;;;;;;5115909;27;20512;-71
2021/07/15 07:27:33;;;;;;;0.45;0.20;;;17.30;22.90;;;;;;5112188;27;20047;-71
2021/07/15 07:30:23;;;;;;;0.88;0.32;;;17.30;22.80;;;;;;5107559;27;20046;-72
2021/07/15 07:33:12;;;;;;;0.73;0.30;;;17.40;23.90;;;;;;5112447;27;20061;-72
2021/07/15 07:36:00;;;;;;;3.70;0.57;;;17.50;21.50;;;;;;5115578;27;20610;-72
2021/07/15 07:38:48;;;;;;;1.55;0.35;;;17.60;21.00;;;;;;5106839;27;20439;-72
2021/07/15 07:41:37;;;;;;;2.28;0.45;;;17.60;20.20;;;;;;5113121;27;20043;-72
2021/07/15 07:44:25;;;;;;;2.47;0.40;;;17.50;20.20;;;;;;5117546;27;20043;-72
2021/07/15 07:47:15;;;;;;;2.70;0.50;;;17.10;21.30;;;;;;5109399;27;20035;-73
2021/07/15 07:50:04;;;;;;;3.30;0.77;;;17.30;21.60;;;;;;5104666;28;20039;-71
2021/07/15 07:52:55;;;;;;;1.17;0.43;;;17.40;21.90;;;;;;5113879;27;20056;-72
2021/07/15 07:55:46;;;;;;;1.30;0.25;;;17.60;20.20;;;;;;5110480;27;20039;-71
2021/07/15 07:58:35;;;;;;;1.80;0.30;;;17.60;18.70;;;;;;5110053;27;20067;-71
2021/07/15 08:01:23;;;;;;;0.55;0.30;;;17.60;18.40;;;;;;5107609;27;20044;-71
2021/07/15 08:04:13;;;;;;;2.53;1.10;;;17.70;17.90;;;;;;5111569;27;20055;-72
2021/07/15 08:07:03;;;;;;;1.60;0.40;;;17.70;19.50;;;;;;5110379;27;20402;-72
2021/07/15 08:09:51;;;;;;;1.33;0.43;;;18.00;18.50;;;;;;5107185;27;20119;-72
2021/07/15 08:12:40;;;;;;;1.40;0.35;;;17.90;17.70;;;;;;5109288;27;20051;-71
2021/07/15 08:15:28;;;;;;;2.20;0.20;;;17.80;19.50;;;;;;5106273;27;20430;-71
2021/07/15 08:18:17;;;;;;;1.65;0.40;;;17.80;15.80;;;;;;5111209;27;20054;-72
2021/07/15 08:21:07;;;;;;;1.85;0.60;;;18.00;18.90;;;;;;5107802;27;20055;-71
2021/07/15 08:23:56;;;;;;;3.63;0.60;;;18.00;19.00;;;;;;5114048;27;20173;-71
2021/07/15 08:26:45;;;;;;;3.58;0.52;;;17.80;20.30;;;;;;5104099;27;20429;-72
2021/07/15 08:29:33;;;;;;;0.93;0.50;;;17.70;20.60;;;;;;5110353;27;20040;-71
2021/07/15 08:32:22;;;;;;;1.73;0.50;;;17.60;21.60;;;;;;5108963;27;20038;-71
2021/07/15 08:35:11;;;;;;;2.30;0.50;;;17.60;21.10;;;;;;5108587;27;20079;-71
2021/07/15 08:38:02;;;;;;;2.10;0.40;;;17.60;21.50;;;;;;5107055;27;20446;-71
2021/07/15 08:40:51;;;;;;;3.42;0.65;;;17.60;20.90;;;;;;5107059;27;20040;-71
2021/07/15 08:43:39;;;;;;;3.35;0.55;;;17.70;20.90;;;;;;5108691;27;20511;-71
2021/07/15 08:46:29;;;;;;;4.05;0.80;;;17.70;20.80;;;;;;5105216;27;20408;-71
2021/07/15 08:49:19;;;;;;;0.73;0.32;;;17.40;21.60;;;;;;5106307;27;20039;-71
2021/07/15 08:52:08;;;;;;;2.17;0.40;;;17.40;21.80;;;;;;5109653;28;20502;-71
2021/07/15 08:55:02;;;;;;;1.95;0.70;;;17.50;22.30;;;;;;5111312;27;20165;-71
2021/07/15 08:57:49;;;;;;;2.03;0.50;;;17.70;22.10;;;;;;5111568;27;20056;-71
2021/07/15 09:00:38;;;;;;;1.05;0.50;;;17.70;21.90;;;;;;5109460;27;20044;-71
2021/07/15 09:03:27;;;;;;;3.67;0.50;;;17.90;20.40;;;;;;5111010;27;20048;-71
2021/07/15 09:06:18;;;;;;;1.02;0.40;;;18.00;19.70;;;;;;5106541;28;20505;-71
2021/07/15 09:09:08;;;;;;;1.63;0.50;;;18.00;19.10;;;;;;5111548;28;20214;-70
2021/07/15 09:11:57;;;;;;;2.13;0.50;;;18.30;17.10;;;;;;5113372;28;20031;-70
2021/07/15 09:14:48;;;;;;;2.45;0.60;;;18.50;14.70;;;;;;5108321;28;20035;-72
2021/07/15 09:17:37;;;;;;;2.17;1.00;;;18.50;15.00;;;;;;5110896;28;20051;-72
2021/07/15 09:20:29;;;;;;;4.25;0.70;;;18.70;13.60;;;;;;5109500;28;20040;-72
2021/07/15 09:23:19;;;;;;;5.00;1.00;;;18.70;12.40;;;;;;5107963;28;20050;-72
2021/07/15 09:26:08;;;;;;;2.08;0.90;;;19.00;11.40;;;;;;5105539;28;20069;-72
2021/07/15 09:29:13;;;;;;;0.73;0.32;;;19.70;8.50;;;;;;5105112;28;20062;-72
2021/07/15 09:32:02;;;;;;;1.27;0.68;;;19.50;5.10;;;;;;5108856;28;20757;-72
2021/07/15 09:35:03;;;;;;;2.20;0.65;;;19.80;5.60;;;;;;5112473;28;20056;-71
2021/07/15 09:37:51;;;;;;;0.80;0.30;;;19.50;6.80;;;;;;5108965;28;20122;-71
2021/07/15 09:40:42;;;;;;;0.75;0.40;;;19.70;3.10;;;;;;5115701;27;20183;-71
2021/07/15 09:43:33;;;;;;;0.70;0.40;;;19.70;3.60;;;;;;5110701;27;20038;-72
2021/07/15 09:46:24;;;;;;;2.08;0.50;;;19.90;3.00;;;;;;5112134;27;20085;-73
2021/07/15 09:49:12;;;;;;;3.00;0.65;;;20.00;3.10;;;;;;5119172;27;20039;-71
2021/07/15 09:52:01;;;;;;;3.40;0.60;;;19.70;3.10;;;;;;5120281;27;20046;-73
2021/07/15 09:54:49;;;;;;;1.00;0.20;;;19.80;3.10;;;;;;5116755;27;20150;-71
2021/07/15 09:57:38;;;;;;;1.27;0.32;;;19.60;3.10;;;;;;5117334;27;20123;-73
2021/07/15 10:00:32;;;;;;;2.75;0.30;;;19.20;4.90;;;;;;5113298;27;20039;-73
2021/07/15 10:03:22;;;;;;;0.35;0.20;;;18.90;5.00;;;;;;5113404;27;20280;-73
2021/07/15 10:06:12;;;;;;;1.75;0.20;;;19.00;6.40;;;;;;5111759;27;20138;-72
2021/07/15 10:09:01;;;;;;;0.95;0.20;;;19.00;6.50;;;;;;5104526;27;20615;-72
2021/07/15 10:11:49;;;;;;;0.80;0.30;;;19.40;5.30;;;;;;5111531;27;20043;-72
2021/07/15 10:14:40;;;;;;;2.85;0.40;;;19.30;5.50;;;;;;5106115;27;20039;-73
2021/07/15 10:17:39;;;;;;;2.63;0.30;;;19.80;4.60;;;;;;5113104;27;20074;-69
2021/07/15 10:20:28;;;;;;;1.25;0.22;;;19.90;1.70;;;;;;5109405;27;20485;-72
2021/07/15 10:23:17;;;;;;;0.57;0.40;;;20.10;2.20;;;;;;5104985;27;20039;-73
2021/07/15 10:26:07;;;;;;;1.42;0.60;;;19.80;2.60;;;;;;5101846;27;20052;-73
2021/07/15 10:28:58;;;;;;;0.40;0.20;;;19.50;3.70;;;;;;5110058;27;20263;-72
2021/07/15 10:31:48;;;;;;;0.57;0.30;;;19.50;5.90;;;;;;5111325;27;20130;-73
2021/07/15 10:34:38;;;;;;;0.30;0.20;;;19.60;6.60;;;;;;5104794;27;20055;-72
2021/07/15 10:37:30;;;;;;;3.08;0.43;;;19.20;5.50;;;;;;5104913;27;20494;-72
2021/07/15 10:40:18;;;;;;;1.60;0.32;;;20.00;5.20;;;;;;5106229;27;20048;-70
2021/07/15 10:43:08;;;;;;;2.25;0.63;;;20.10;4.70;;;;;;5109122;27;20483;-72
2021/07/15 10:45:58;;;;;;;2.15;0.45;;;20.80;1.70;;;;;;5108363;27;20054;-72
2021/07/15 10:48:48;;;;;;;0.80;0.40;;;20.40;2.30;;;;;;5106557;27;20046;-73
2021/07/15 10:51:37;;;;;;;2.30;0.40;;;20.30;1.00;;;;;;5108579;27;20143;-72
2021/07/15 10:54:28;;;;;;;0.70;0.25;;;20.50;1.00;;;;;;5106788;27;20636;-72
2021/07/15 10:57:20;;;;;;;0.47;0.40;;;19.90;1.10;;;;;;5105543;27;20051;-71
2021/07/15 11:00:21;;;;;;;0.50;0.30;;;20.00;1.80;;;;;;5108072;27;20386;-71
2021/07/15 11:03:12;;;;;;;1.65;0.50;;;20.10;3.40;;;;;;5108043;27;20075;-72
2021/07/15 11:06:10;;;;;;;2.55;0.60;;;19.20;9.20;;;;;;5106061;27;20540;-72
2021/07/15 11:09:00;;;;;;;2.22;0.60;;;19.00;13.90;;;;;;5111652;27;20055;-71
2021/07/15 11:11:51;;;;;;;0.55;0.38;;;19.20;14.10;;;;;;5115717;27;20188;-71
2021/07/15 11:14:43;;;;;;;2.42;0.60;;;19.40;12.90;;;;;;5112621;27;20047;-72
2021/07/15 11:17:33;;;;;;;0.77;0.50;;;19.20;14.30;;;;;;5114248;27;20047;-72
2021/07/15 11:20:26;;;;;;;0.90;0.70;;;18.90;16.20;;;;;;5104327;27;20146;-72
2021/07/15 11:23:20;;;;;;;0.85;0.30;;;18.80;21.10;;;;;;5109518;27;20130;-72
2021/07/15 11:26:26;;;;;;;1.33;0.70;;;19.00;19.80;;;;;;5103609;27;20168;-72
2021/07/15 11:29:17;;;;;;;1.75;0.90;;;18.90;18.00;;;;;;5112030;27;20261;-71
2021/07/15 11:32:24;;;;;;;1.83;0.47;;;19.10;17.00;;;;;;5109132;27;20046;-71
2021/07/15 11:35:29;;;;;;;0.57;0.40;;;18.90;17.50;;;;;;5104625;27;20240;-71
2021/07/15 11:38:24;;;;;;;2.65;0.60;;;18.90;17.50;;;;;;5106230;27;20429;-71
2021/07/15 11:41:15;;;;;;;1.05;0.50;;;19.00;17.60;;;;;;5106002;27;20686;-72
2021/07/15 11:44:03;;;;;;;0.95;0.60;;;19.40;14.20;;;;;;5111177;27;20074;-72
2021/07/15 11:46:53;;;;;;;2.00;0.45;;;19.60;11.60;;;;;;5115047;27;20121;-72
2021/07/15 11:49:43;;;;;;;3.42;1.17;;;19.60;10.70;;;;;;5106801;27;20529;-71
2021/07/15 11:52:31;;;;;;;8.63;5.18;;;19.80;10.00;;;;;;5105754;27;20043;-71
2021/07/15 11:55:19;;;;;;;0.82;0.68;;;20.20;8.60;;;;;;5105239;27;20518;-71
2021/07/15 11:58:08;;;;;;;1.42;0.43;;;19.60;9.30;;;;;;5103044;27;20044;-71
2021/07/15 12:01:18;;;;;;;1.15;0.40;;;19.90;7.10;;;;;;5104720;27;20420;-74
2021/07/15 12:04:10;;;;;;;0.73;0.40;;;19.80;7.10;;;;;;5106089;27;20051;-71
2021/07/15 12:06:58;;;;;;;0.65;0.30;;;19.40;7.90;;;;;;5109975;27;20057;-71
2021/07/15 12:09:47;;;;;;;1.67;0.40;;;19.60;6.90;;;;;;5098262;28;20043;-71
2021/07/15 12:12:40;;;;;;;0.30;0.28;;;19.80;5.30;;;;;;5105988;27;20408;-71
2021/07/15 12:15:29;;;;;;;0.68;0.32;;;20.40;5.00;;;;;;5104107;27;20047;-71
2021/07/15 12:18:20;;;;;;;1.40;0.50;;;20.70;2.70;;;;;;5104262;27;20180;-71
2021/07/15 12:21:10;;;;;;;2.63;0.57;;;20.40;1.80;;;;;;5109537;27;20110;-71
2021/07/15 12:24:08;;;;;;;1.80;0.55;;;21.60;2.40;;;;;;5111108;27;20048;-72
2021/07/15 12:26:58;;;;;;;6.65;0.70;;;22.00;1.10;;;;;;5104952;27;20035;-72
2021/07/15 12:29:56;;;;;;;2.90;0.50;;;21.50;1.00;;;;;;5106484;27;20466;-72
2021/07/15 12:32:56;;;;;;;0.68;0.47;;;21.60;1.00;;;;;;5111891;27;20051;-72
2021/07/15 12:35:47;;;;;;;6.25;0.70;;;21.70;1.00;;;;;;5107509;27;20756;-72
2021/07/15 12:38:37;;;;;;;0.93;0.40;;;21.30;1.00;;;;;;5105212;27;20043;-71
2021/07/15 12:41:26;;;;;;;2.28;1.27;;;21.90;1.00;;;;;;5103846;27;20047;-72
2021/07/15 12:44:17;;;;;;;1.13;0.50;;;21.70;1.00;;;;;;5105374;27;20510;-71
2021/07/15 12:47:06;;;;;;;0.57;0.50;;;22.30;1.00;;;;;;5101231;27;20085;-72
2021/07/15 12:49:54;;;;;;;0.50;0.30;;;21.40;1.00;;;;;;5102599;27;20127;-71
2021/07/15 12:52:43;;;;;;;0.40;0.30;;;21.80;1.00;;;;;;5106420;27;20132;-71
2021/07/15 12:55:32;;;;;;;0.30;0.20;;;21.30;1.00;;;;;;5106123;27;20050;-72
2021/07/15 12:58:24;;;;;;;0.68;0.35;;;21.40;1.00;;;;;;5092556;27;20049;-72
2021/07/15 13:01:13;;;;;;;0.40;0.30;;;21.00;1.00;;;;;;5110815;27;20062;-72
2021/07/15 13:04:06;;;;;;;1.90;0.50;;;21.20;1.00;;;;;;5103753;27;20051;-72
2021/07/15 13:06:57;;;;;;;0.40;0.40;;;21.40;1.00;;;;;;5101356;28;20584;-71
2021/07/15 13:10:09;;;;;;;0.60;0.40;;;21.30;1.00;;;;;;5110967;27;20522;-72
2021/07/15 13:16:10;;;;;;;2.47;0.63;;;21.20;1.00;;;;;;5108830;27;20050;-72
2021/07/15 13:19:10;;;;;;;1.50;0.65;;;21.10;1.00;;;;;;5108543;27;20047;-72
2021/07/15 13:22:11;;;;;;;3.17;0.68;;;21.20;1.00;;;;;;5114798;27;20414;-72
2021/07/15 13:25:01;;;;;;;0.65;0.50;;;21.50;1.00;;;;;;5109252;27;20055;-71
2021/07/15 13:27:51;;;;;;;0.68;0.60;;;20.90;1.00;;;;;;5107875;27;20054;-71
2021/07/15 13:30:42;;;;;;;0.50;0.50;;;20.80;1.00;;;;;;5108485;27;20048;-71
2021/07/15 13:33:30;;;;;;;0.50;0.50;;;21.10;1.00;;;;;;5114067;27;20178;-72
2021/07/15 13:36:18;;;;;;;1.98;0.50;;;21.40;1.00;;;;;;5108014;27;20836;-72
2021/07/15 13:39:07;;;;;;;0.77;0.40;;;20.90;1.00;;;;;;5109262;27;20056;-72
2021/07/15 13:41:58;;;;;;;0.77;0.57;;;21.10;1.00;;;;;;5118143;27;20059;-72
2021/07/15 13:44:53;;;;;;;2.13;0.60;;;20.80;2.00;;;;;;5112869;27;20160;-73
2021/07/15 13:47:45;;;;;;;2.35;0.73;;;21.20;1.00;;;;;;5108566;27;20061;-71
2021/07/15 13:50:34;;;;;;;0.93;0.80;;;20.70;1.70;;;;;;5109452;27;20050;-72
2021/07/15 13:53:22;;;;;;;2.40;0.80;;;20.70;2.40;;;;;;5113073;27;20107;-73
2021/07/15 13:56:10;;;;;;;1.00;0.63;;;20.70;2.30;;;;;;5107000;27;20058;-72
2021/07/15 13:58:59;;;;;;;1.27;0.77;;;21.00;2.30;;;;;;5113606;27;20054;-72
2021/07/15 14:01:47;;;;;;;1.65;0.60;;;20.90;2.70;;;;;;5112038;27;20508;-75
2021/07/15 14:04:41;;;;;;;0.90;0.63;;;20.90;2.60;;;;;;5114847;27;20135;-72
2021/07/15 14:07:34;;;;;;;1.85;1.20;;;20.80;2.60;;;;;;5105543;27;20115;-72
2021/07/15 14:10:27;;;;;;;2.10;0.80;;;21.10;1.00;;;;;;5110771;27;20043;-71
2021/07/15 14:13:16;;;;;;;0.98;0.68;;;21.40;1.10;;;;;;5115044;27;20043;-73
2021/07/15 14:16:05;;;;;;;0.73;0.50;;;21.00;1.00;;;;;;5111022;27;20769;-71
2021/07/15 14:19:04;;;;;;;1.20;0.60;;;21.10;1.00;;;;;;5107342;27;20311;-71
2021/07/15 14:21:53;;;;;;;0.85;0.65;;;20.90;1.00;;;;;;5112700;27;20043;-72
2021/07/15 14:24:43;;;;;;;0.95;0.60;;;20.90;1.00;;;;;;5117479;27;20494;-72
2021/07/15 14:27:31;;;;;;;0.70;0.63;;;21.10;1.00;;;;;;5105203;27;20208;-72
2021/07/15 14:30:24;;;;;;;1.38;0.90;;;21.10;1.00;;;;;;5117097;27;20055;-72
2021/07/15 14:33:13;;;;;;;1.15;0.70;;;21.20;1.00;;;;;;5109745;27;20263;-73
2021/07/15 14:36:02;;;;;;;0.60;0.52;;;21.40;1.00;;;;;;5107190;27;20071;-72
2021/07/15 14:38:51;;;;;;;0.60;0.60;;;21.70;1.00;;;;;;5110511;27;20508;-73
2021/07/15 14:41:40;;;;;;;1.30;0.70;;;21.40;1.00;;;;;;5109907;27;20181;-73
2021/07/15 14:44:28;;;;;;;1.73;0.85;;;21.60;1.00;;;;;;5109932;27;20438;-72
2021/07/15 14:47:16;;;;;;;0.55;0.55;;;21.50;1.00;;;;;;5100888;27;20390;-72
2021/07/15 14:50:06;;;;;;;0.80;0.70;;;21.80;1.00;;;;;;5104266;27;20055;-72
2021/07/15 14:52:56;;;;;;;1.17;0.70;;;22.00;1.00;;;;;;5113765;27;20394;-72
2021/07/15 14:55:46;;;;;;;1.20;0.88;;;21.50;1.00;;;;;;5106233;27;20044;-72
2021/07/15 14:58:35;;;;;;;1.30;1.15;;;22.00;1.00;;;;;;5105467;27;20051;-71